sensor_id;sensor_type;location;lat;lon;timestamp;temperature;humidity
14709;DHT22;7445;50.774;4.944;2022-10-31T06:54:39;12.10;99.90
14709;DHT22;7445;50.774;4.944;2022-10-31T06:57:04;12.10;99.90
14709;DHT22;7445;50.774;4.944;2022-10-31T06:59:30;12.20;99.90
14709;DHT22;7445;50.774;4.944;2022-10-31T07:01:57;12.10;99.90
14709;DHT22;7445;50.774;4.944;2022-10-31T07:04:23;12.20;99.90
14709;DHT22;7445;50.774;4.944;2022-10-31T07:06:51;12.20;99.90
14709;DHT22;7445;50.774;4.944;2022-10-31T07:09:18;12.30;99.90
14709;DHT22;7445;50.774;4.944;2022-10-31T07:11:43;12.20;99.90
14709;DHT22;7445;50.774;4.944;2022-10-31T07:14:09;12.20;99.90
14709;DHT22;7445;50.774;4.944;2022-10-31T07:16:34;12.30;99.90
14709;DHT22;7445;50.774;4.944;2022-10-31T07:19:00;12.30;99.90
14709;DHT22;7445;50.774;4.944;2022-10-31T07:21:26;12.40;99.90
14709;DHT22;7445;50.774;4.944;2022-10-31T07:23:51;12.50;99.90
14709;DHT22;7445;50.774;4.944;2022-10-31T07:26:17;12.70;99.90
14709;DHT22;7445;50.774;4.944;2022-10-31T07:28:43;12.70;99.90
14709;DHT22;7445;50.774;4.944;2022-10-31T07:31:08;12.80;99.90
14709;DHT22;7445;50.774;4.944;2022-10-31T07:33:34;12.80;99.90
14709;DHT22;7445;50.774;4.944;2022-10-31T07:36:00;12.80;99.90
14709;DHT22;7445;50.774;4.944;2022-10-31T07:38:25;12.90;99.90
14709;DHT22;7445;50.774;4.944;2022-10-31T07:40:52;12.90;99.90
14709;DHT22;7445;50.774;4.944;2022-10-31T07:43:20;13.00;99.90
14709;DHT22;7445;50.774;4.944;2022-10-31T07:45:52;13.10;99.90
14709;DHT22;7445;50.774;4.944;2022-10-31T07:48:18;13.10;99.90
14709;DHT22;7445;50.774;4.944;2022-10-31T07:50:44;13.00;99.90
14709;DHT22;7445;50.774;4.944;2022-10-31T07:53:12;13.10;99.90
14709;DHT22;7445;50.774;4.944;2022-10-31T07:55:38;13.10;99.90
14709;DHT22;7445;50.774;4.944;2022-10-31T07:58:06;13.20;99.90
14709;DHT22;7445;50.774;4.944;2022-10-31T08:00:33;13.20;99.90
14709;DHT22;7445;50.774;4.944;2022-10-31T08:03:06;13.10;99.90
14709;DHT22;7445;50.774;4.944;2022-10-31T08:05:32;13.10;99.90
14709;DHT22;7445;50.774;4.944;2022-10-31T08:07:58;13.20;99.90
14709;DHT22;7445;50.774;4.944;2022-10-31T08:10:24;13.30;99.90
14709;DHT22;7445;50.774;4.944;2022-10-31T08:12:58;13.40;99.90
14709;DHT22;7445;50.774;4.944;2022-10-31T08:15:25;13.50;99.90
14709;DHT22;7445;50.774;4.944;2022-10-31T08:17:51;13.60;99.90
14709;DHT22;7445;50.774;4.944;2022-10-31T08:20:17;13.70;99.90
14709;DHT22;7445;50.774;4.944;2022-10-31T08:22:43;13.80;99.90
14709;DHT22;7445;50.774;4.944;2022-10-31T08:25:09;13.80;99.90
14709;DHT22;7445;50.774;4.944;2022-10-31T08:27:34;13.80;99.90
14709;DHT22;7445;50.774;4.944;2022-10-31T08:30:00;13.90;99.90
14709;DHT22;7445;50.774;4.944;2022-10-31T08:32:26;13.90;99.90
14709;DHT22;7445;50.774;4.944;2022-10-31T08:34:51;14.00;99.90
14709;DHT22;7445;50.774;4.944;2022-10-31T08:37:17;14.00;99.90
14709;DHT22;7445;50.774;4.944;2022-10-31T08:39:46;14.00;99.90
14709;DHT22;7445;50.774;4.944;2022-10-31T08:42:12;14.10;99.90
14709;DHT22;7445;50.774;4.944;2022-10-31T08:44:38;14.10;99.90
14709;DHT22;7445;50.774;4.944;2022-10-31T08:47:04;14.20;99.90
14709;DHT22;7445;50.774;4.944;2022-10-31T08:49:30;14.20;99.90
14709;DHT22;7445;50.774;4.944;2022-10-31T08:51:55;14.30;99.90
14709;DHT22;7445;50.774;4.944;2022-10-31T08:54:21;14.30;99.90
14709;DHT22;7445;50.774;4.944;2022-10-31T08:56:47;14.40;99.90
14709;DHT22;7445;50.774;4.944;2022-10-31T08:59:12;14.50;99.90
14709;DHT22;7445;50.774;4.944;2022-10-31T09:01:38;14.60;99.90
14709;DHT22;7445;50.774;4.944;2022-10-31T09:04:03;14.70;99.90
14709;DHT22;7445;50.774;4.944;2022-10-31T09:06:29;14.80;99.90
14709;DHT22;7445;50.774;4.944;2022-10-31T09:08:55;14.90;99.90
14709;DHT22;7445;50.774;4.944;2022-10-31T09:11:20;15.00;99.90
14709;DHT22;7445;50.774;4.944;2022-10-31T09:13:46;15.00;99.90
14709;DHT22;7445;50.774;4.944;2022-10-31T09:16:11;15.10;99.90
14709;DHT22;7445;50.774;4.944;2022-10-31T09:18:37;15.10;99.90
14709;DHT22;7445;50.774;4.944;2022-10-31T09:21:03;15.20;99.90
14709;DHT22;7445;50.774;4.944;2022-10-31T09:23:29;15.20;99.90
14709;DHT22;7445;50.774;4.944;2022-10-31T09:25:55;15.30;99.90
14709;DHT22;7445;50.774;4.944;2022-10-31T09:28:23;15.40;99.90
14709;DHT22;7445;50.774;4.944;2022-10-31T09:30:52;15.40;99.90
14709;DHT22;7445;50.774;4.944;2022-10-31T09:33:18;15.50;99.90
14709;DHT22;7445;50.774;4.944;2022-10-31T09:35:44;15.50;99.90
14709;DHT22;7445;50.774;4.944;2022-10-31T09:38:12;15.70;99.90
14709;DHT22;7445;50.774;4.944;2022-10-31T09:52:03;15.70;99.90
14709;DHT22;7445;50.774;4.944;2022-10-31T09:54:54;15.70;99.90
14709;DHT22;7445;50.774;4.944;2022-10-31T09:57:27;15.70;99.90
14709;DHT22;7445;50.774;4.944;2022-10-31T09:59:53;15.70;99.90
14709;DHT22;7445;50.774;4.944;2022-10-31T10:05:12;15.70;99.90
14709;DHT22;7445;50.774;4.944;2022-10-31T10:24:15;16.10;99.90
14709;DHT22;7445;50.774;4.944;2022-10-31T10:27:39;16.10;99.90
14709;DHT22;7445;50.774;4.944;2022-10-31T10:30:19;16.10;99.90
14709;DHT22;7445;50.774;4.944;2022-10-31T10:32:58;16.20;99.90
14709;DHT22;7445;50.774;4.944;2022-10-31T10:35:32;16.20;99.90
14709;DHT22;7445;50.774;4.944;2022-10-31T10:41:12;16.40;99.90
14709;DHT22;7445;50.774;4.944;2022-10-31T10:43:39;16.40;99.90
14709;DHT22;7445;50.774;4.944;2022-10-31T10:49:32;16.60;99.90
14709;DHT22;7445;50.774;4.944;2022-10-31T10:54:59;16.70;99.90
14709;DHT22;7445;50.774;4.944;2022-10-31T11:00:27;17.00;99.90
14709;DHT22;7445;50.774;4.944;2022-10-31T11:02:55;17.00;99.90
14709;DHT22;7445;50.774;4.944;2022-10-31T11:07:54;17.00;99.90
14709;DHT22;7445;50.774;4.944;2022-10-31T11:10:19;17.10;99.90
14709;DHT22;7445;50.774;4.944;2022-10-31T11:13:20;17.10;99.90
14709;DHT22;7445;50.774;4.944;2022-10-31T11:16:00;17.20;99.90
14709;DHT22;7445;50.774;4.944;2022-10-31T11:18:33;17.30;99.90
14709;DHT22;7445;50.774;4.944;2022-10-31T11:21:01;17.40;99.90
14709;DHT22;7445;50.774;4.944;2022-10-31T11:23:29;17.50;99.90
14709;DHT22;7445;50.774;4.944;2022-10-31T11:25:59;17.60;99.90
14709;DHT22;7445;50.774;4.944;2022-10-31T11:28:26;17.80;99.90
14709;DHT22;7445;50.774;4.944;2022-10-31T11:30:57;18.00;99.90
14709;DHT22;7445;50.774;4.944;2022-10-31T11:33:37;18.30;99.90
14709;DHT22;7445;50.774;4.944;2022-10-31T11:36:16;18.30;99.90
14709;DHT22;7445;50.774;4.944;2022-10-31T11:38:43;18.20;99.90
14709;DHT22;7445;50.774;4.944;2022-10-31T11:41:10;18.30;99.90
14709;DHT22;7445;50.774;4.944;2022-10-31T11:43:37;18.30;99.90
14709;DHT22;7445;50.774;4.944;2022-10-31T11:46:19;18.30;99.90
14709;DHT22;7445;50.774;4.944;2022-10-31T11:48:51;18.50;99.90
14709;DHT22;7445;50.774;4.944;2022-10-31T11:51:25;18.50;99.90
14709;DHT22;7445;50.774;4.944;2022-10-31T11:53:53;18.60;99.90
14709;DHT22;7445;50.774;4.944;2022-10-31T11:56:19;18.60;99.90
14709;DHT22;7445;50.774;4.944;2022-10-31T11:58:57;18.50;99.90
14709;DHT22;7445;50.774;4.944;2022-10-31T12:01:26;18.50;99.90
14709;DHT22;7445;50.774;4.944;2022-10-31T12:04:09;18.40;99.90
14709;DHT22;7445;50.774;4.944;2022-10-31T12:06:55;18.30;99.90
14709;DHT22;7445;50.774;4.944;2022-10-31T12:09:32;18.30;99.90
14709;DHT22;7445;50.774;4.944;2022-10-31T12:17:23;18.20;99.90
14709;DHT22;7445;50.774;4.944;2022-10-31T12:20:06;18.20;99.90
14709;DHT22;7445;50.774;4.944;2022-10-31T12:34:18;17.90;99.90
14709;DHT22;7445;50.774;4.944;2022-10-31T12:39:30;17.80;99.90
14709;DHT22;7445;50.774;4.944;2022-10-31T12:47:45;17.70;99.90
14709;DHT22;7445;50.774;4.944;2022-10-31T12:56:24;17.50;99.90
14709;DHT22;7445;50.774;4.944;2022-10-31T13:01:47;17.50;99.90
14709;DHT22;7445;50.774;4.944;2022-10-31T13:07:06;17.50;99.90
14709;DHT22;7445;50.774;4.944;2022-10-31T13:12:34;17.60;99.90
14709;DHT22;7445;50.774;4.944;2022-10-31T13:15:34;17.60;99.90
14709;DHT22;7445;50.774;4.944;2022-10-31T13:18:09;17.60;99.90
14709;DHT22;7445;50.774;4.944;2022-10-31T13:20:45;17.70;99.90
14709;DHT22;7445;50.774;4.944;2022-10-31T13:23:32;17.80;99.90
14709;DHT22;7445;50.774;4.944;2022-10-31T13:26:01;17.90;99.90
14709;DHT22;7445;50.774;4.944;2022-10-31T13:29:02;17.90;99.90
14709;DHT22;7445;50.774;4.944;2022-10-31T13:31:29;18.00;99.90
14709;DHT22;7445;50.774;4.944;2022-10-31T13:34:03;18.10;99.90
14709;DHT22;7445;50.774;4.944;2022-10-31T13:39:23;18.20;99.90
14709;DHT22;7445;50.774;4.944;2022-10-31T13:44:28;18.30;99.90
14709;DHT22;7445;50.774;4.944;2022-10-31T13:46:57;18.30;99.90
14709;DHT22;7445;50.774;4.944;2022-10-31T13:52:14;18.40;99.90
14709;DHT22;7445;50.774;4.944;2022-10-31T13:54:52;18.40;99.90
14709;DHT22;7445;50.774;4.944;2022-10-31T13:58:26;18.30;99.90
14709;DHT22;7445;50.774;4.944;2022-10-31T14:03:30;18.40;99.90
14709;DHT22;7445;50.774;4.944;2022-10-31T14:05:58;18.30;99.90
14709;DHT22;7445;50.774;4.944;2022-10-31T14:08:24;18.30;99.90
14709;DHT22;7445;50.774;4.944;2022-10-31T14:10:52;18.30;99.90
